Time;durP1;ratioP1;P1;durP2;ratioP2;P2;SDS_P1;SDS_P2;PMS_P1;PMS_P2;Temp;Humidity;BMP_temperature;BMP_pressure;BME280_temperature;BME280_humidity;BME280_pressure;Samples;Min_cycle;Max_cycle;Signal;HPM_P1;HPM_P2
2022/12/25 00:00:26;;;;;;;9.18;3.80;;;11.10;99.90;;;;;;5069026;28;20624;-78
2022/12/25 00:02:53;;;;;;;9.50;4.40;;;11.10;99.90;;;;;;5050714;28;20164;-78
2022/12/25 00:05:18;;;;;;;9.02;3.92;;;11.10;99.90;;;;;;5051076;28;20241;-78
2022/12/25 00:07:44;;;;;;;7.87;3.80;;;11.10;99.90;;;;;;5068636;28;20176;-78
2022/12/25 00:10:10;;;;;;;7.47;3.77;;;11.10;99.90;;;;;;5050845;28;20181;-79
2022/12/25 00:12:36;;;;;;;9.20;4.40;;;11.20;99.90;;;;;;5051690;28;20206;-78
2022/12/25 00:15:03;;;;;;;9.52;3.70;;;11.20;99.90;;;;;;5067624;28;20208;-80
2022/12/25 00:17:28;;;;;;;7.40;3.47;;;11.20;99.90;;;;;;5050380;28;20173;-79
2022/12/25 00:19:54;;;;;;;10.13;3.60;;;11.20;99.90;;;;;;5050466;28;20648;-79
2022/12/25 00:22:20;;;;;;;10.23;3.70;;;11.30;99.90;;;;;;5033961;28;20183;-79
2022/12/25 00:24:48;;;;;;;5.93;3.20;;;11.30;99.90;;;;;;5050863;28;20196;-80
2022/12/25 00:27:15;;;;;;;5.15;2.92;;;11.30;99.90;;;;;;5034338;28;20188;-80
2022/12/25 00:29:40;;;;;;;9.88;3.78;;;11.30;99.90;;;;;;5050117;28;20203;-79
2022/12/25 00:32:06;;;;;;;6.40;2.80;;;11.40;99.90;;;;;;5068643;28;20794;-80
2022/12/25 00:34:32;;;;;;;11.37;4.97;;;11.40;99.90;;;;;;5071205;28;20798;-80
2022/12/25 00:36:58;;;;;;;10.53;4.20;;;11.40;99.90;;;;;;5054623;28;20183;-79
2022/12/25 00:39:23;;;;;;;7.27;3.23;;;11.50;99.90;;;;;;5071946;28;20225;-80
2022/12/25 00:44:33;;;;;;;6.28;3.85;;;11.50;99.90;;;;;;5054262;28;20208;-79
2022/12/25 00:46:59;;;;;;;7.60;3.70;;;11.40;99.90;;;;;;5054409;28;20195;-79
2022/12/25 00:49:25;;;;;;;5.83;3.40;;;11.40;99.90;;;;;;5072256;28;20554;-80
2022/12/25 00:51:51;;;;;;;8.77;4.60;;;11.40;99.90;;;;;;5042519;28;20169;-79
2022/12/25 00:54:17;;;;;;;10.23;4.00;;;11.40;99.90;;;;;;5071992;28;20193;-79
2022/12/25 00:56:43;;;;;;;7.97;3.90;;;11.40;99.90;;;;;;5072021;28;20176;-79
2022/12/25 00:59:10;;;;;;;8.73;3.20;;;11.30;99.90;;;;;;5071854;28;20280;-79
2022/12/25 01:01:36;;;;;;;8.27;2.42;;;11.30;99.90;;;;;;5053856;28;20251;-78
2022/12/25 01:04:02;;;;;;;9.07;3.37;;;11.40;99.90;;;;;;5054394;28;20356;-78
2022/12/25 01:06:28;;;;;;;6.15;3.10;;;11.30;99.90;;;;;;5054258;28;20983;-79
2022/12/25 01:11:39;;;;;;;8.80;3.00;;;11.30;99.90;;;;;;5087686;28;20184;-79
2022/12/25 01:14:05;;;;;;;10.93;4.50;;;11.30;99.90;;;;;;5073440;28;20173;-78
2022/12/25 01:16:31;;;;;;;4.20;2.53;;;11.30;99.90;;;;;;5054550;28;20210;-80
2022/12/25 01:18:57;;;;;;;13.10;3.80;;;11.40;99.90;;;;;;5072058;28;20172;-80
2022/12/25 01:21:23;;;;;;;7.97;3.30;;;11.30;99.90;;;;;;5053841;28;20583;-79
2022/12/25 01:23:51;;;;;;;8.10;3.63;;;11.30;99.90;;;;;;5069145;28;20556;-79
2022/12/25 01:26:18;;;;;;;7.70;2.60;;;11.30;99.90;;;;;;5060954;28;20201;-78
2022/12/25 01:28:44;;;;;;;15.88;3.67;;;11.30;99.90;;;;;;5040056;28;20323;-79
2022/12/25 01:31:13;;;;;;;11.32;3.10;;;11.30;99.90;;;;;;5034966;28;20216;-79
2022/12/25 01:33:40;;;;;;;7.78;3.45;;;11.40;99.90;;;;;;5034729;28;20708;-78
2022/12/25 01:36:22;;;;;;;5.32;2.65;;;11.40;99.90;;;;;;5034181;28;20300;-79
2022/12/25 01:38:49;;;;;;;6.07;3.28;;;11.40;99.90;;;;;;5032719;28;20164;-79
2022/12/25 01:41:16;;;;;;;6.07;2.22;;;11.40;99.90;;;;;;5051215;28;20165;-79
2022/12/25 01:44:01;;;;;;;5.97;2.47;;;11.40;99.90;;;;;;5032753;28;20226;-79
2022/12/25 01:46:27;;;;;;;5.78;2.75;;;11.40;99.90;;;;;;5051420;28;20183;-79
2022/12/25 01:48:55;;;;;;;5.50;2.30;;;11.50;99.90;;;;;;5050576;28;20176;-79
2022/12/25 01:51:51;;;;;;;4.45;1.75;;;11.50;99.90;;;;;;5050802;28;20185;-80
2022/12/25 01:54:22;;;;;;;6.35;2.50;;;11.50;99.90;;;;;;5050313;28;20275;-80
2022/12/25 01:56:51;;;;;;;5.30;2.55;;;11.50;99.90;;;;;;5032705;28;20230;-79
2022/12/25 01:59:20;;;;;;;7.60;3.20;;;11.50;99.90;;;;;;5034716;28;20175;-79
2022/12/25 02:01:46;;;;;;;7.93;2.75;;;11.50;99.90;;;;;;5027758;28;20189;-80
2022/12/25 02:04:37;;;;;;;6.25;2.70;;;11.50;99.90;;;;;;5046516;28;20176;-79
2022/12/25 02:07:18;;;;;;;6.72;2.72;;;11.50;99.90;;;;;;5053057;28;20180;-79
2022/12/25 02:09:46;;;;;;;5.40;2.72;;;11.50;99.90;;;;;;5005884;28;20272;-79
2022/12/25 02:12:27;;;;;;;8.98;2.85;;;11.60;99.90;;;;;;5060917;28;20176;-79
2022/12/25 02:14:57;;;;;;;5.50;2.78;;;11.60;99.90;;;;;;5052764;28;20227;-79
2022/12/25 02:17:28;;;;;;;6.30;2.03;;;11.60;99.90;;;;;;5021883;28;20168;-80
2022/12/25 02:20:48;;;;;;;8.05;2.85;;;11.60;99.90;;;;;;5054155;28;20231;-79
2022/12/25 02:23:41;;;;;;;9.38;2.67;;;11.60;99.90;;;;;;5033185;28;20169;-79
2022/12/25 02:26:16;;;;;;;7.18;2.70;;;11.70;99.90;;;;;;5032457;28;20205;-79
2022/12/25 02:29:00;;;;;;;5.93;2.78;;;11.70;99.90;;;;;;5032150;28;20200;-78
2022/12/25 02:31:26;;;;;;;7.70;2.25;;;11.70;99.90;;;;;;5015697;28;20173;-78
2022/12/25 02:34:24;;;;;;;7.00;2.23;;;11.70;99.90;;;;;;5032253;28;20516;-79
2022/12/25 02:37:02;;;;;;;5.22;2.13;;;11.70;99.90;;;;;;4994634;28;20192;-78
2022/12/25 02:40:01;;;;;;;7.88;2.25;;;11.80;99.90;;;;;;5015580;28;20212;-79
2022/12/25 03:08:40;;;;;;;6.90;2.60;;;11.90;99.90;;;;;;5031041;28;20212;-78
2022/12/25 03:16:52;;;;;;;6.82;2.45;;;11.90;99.90;;;;;;5049675;28;20278;-79
2022/12/25 03:27:59;;;;;;;6.60;2.25;;;11.90;99.90;;;;;;5048968;28;20177;-78
2022/12/25 03:35:21;;;;;;;6.18;2.15;;;11.90;99.90;;;;;;5026292;28;20578;-78
2022/12/25 03:37:04;;;;;;;7.90;2.35;;;12.00;99.90;;;;;;5029386;28;20209;-79
2022/12/25 04:37:56;;;;;;;4.73;1.77;;;12.10;99.90;;;;;;5033739;28;20621;-79
2022/12/25 04:40:21;;;;;;;5.80;1.77;;;12.20;99.90;;;;;;5034618;28;20567;-79
2022/12/25 04:42:49;;;;;;;6.80;1.53;;;12.20;99.90;;;;;;5017412;28;21154;-79
2022/12/25 04:45:15;;;;;;;7.20;2.13;;;12.20;99.90;;;;;;5034347;28;21085;-79
2022/12/25 04:47:41;;;;;;;6.73;3.40;;;12.10;99.90;;;;;;5051803;28;20320;-80
2022/12/25 04:50:07;;;;;;;6.53;2.30;;;12.20;99.90;;;;;;5064485;22;20704;-75
2022/12/25 04:52:42;;;;;;;7.43;1.88;;;12.20;99.90;;;;;;5028372;28;20231;-75
2022/12/25 04:55:09;;;;;;;5.93;1.80;;;12.10;99.90;;;;;;5029264;28;20214;-75
2022/12/25 04:57:35;;;;;;;4.35;1.45;;;12.10;99.90;;;;;;5035155;28;20651;-75
2022/12/25 05:00:00;;;;;;;3.70;1.83;;;12.10;99.90;;;;;;5052238;28;20189;-74
2022/12/25 05:02:26;;;;;;;6.67;2.37;;;12.10;99.90;;;;;;5051718;28;20183;-75
2022/12/25 05:04:52;;;;;;;5.10;1.90;;;12.10;99.90;;;;;;5052216;28;20172;-75
2022/12/25 05:07:18;;;;;;;3.80;1.70;;;12.10;99.90;;;;;;5052504;28;20177;-75
2022/12/25 05:09:43;;;;;;;5.23;1.93;;;12.10;99.90;;;;;;5051840;28;20548;-75
2022/12/25 05:12:09;;;;;;;4.60;1.83;;;12.10;99.90;;;;;;5052258;28;20473;-75
2022/12/25 05:14:35;;;;;;;6.28;2.10;;;12.00;99.90;;;;;;5034223;28;20173;-75
2022/12/25 05:17:01;;;;;;;4.03;1.35;;;12.00;99.90;;;;;;5050955;28;20173;-75
2022/12/25 05:19:27;;;;;;;6.63;1.87;;;12.00;99.90;;;;;;5049413;28;20192;-75
2022/12/25 05:21:53;;;;;;;6.73;2.63;;;12.10;99.90;;;;;;5052079;28;20562;-75
2022/12/25 05:24:19;;;;;;;6.87;1.70;;;12.10;99.90;;;;;;5051986;28;20683;-75
2022/12/25 05:26:45;;;;;;;3.60;1.60;;;12.10;99.90;;;;;;5050477;28;20587;-75
2022/12/25 05:29:11;;;;;;;6.50;1.60;;;12.00;99.90;;;;;;5051784;28;20578;-75
2022/12/25 05:31:36;;;;;;;4.80;1.90;;;12.00;99.90;;;;;;5053254;28;20682;-75
2022/12/25 05:34:02;;;;;;;7.10;1.80;;;12.00;99.90;;;;;;5073300;28;20245;-75
2022/12/25 05:36:28;;;;;;;4.90;1.90;;;12.00;99.90;;;;;;5071533;28;20307;-75
2022/12/25 05:38:53;;;;;;;6.07;1.77;;;12.00;99.90;;;;;;5072138;28;20199;-74
2022/12/25 05:41:19;;;;;;;4.10;1.70;;;12.00;99.90;;;;;;5053446;28;20952;-74
2022/12/25 05:43:45;;;;;;;4.73;1.50;;;11.90;99.90;;;;;;5035936;28;20180;-75
2022/12/25 05:46:12;;;;;;;5.20;1.47;;;11.90;99.90;;;;;;5033062;28;20177;-75
2022/12/25 05:48:38;;;;;;;5.25;1.70;;;11.90;99.90;;;;;;5033590;28;20308;-75
2022/12/25 05:51:12;;;;;;;4.63;1.50;;;11.90;99.90;;;;;;5051633;28;20303;-75
2022/12/25 05:53:38;;;;;;;6.18;1.80;;;11.90;99.90;;;;;;5034436;28;20188;-75
2022/12/25 05:56:06;;;;;;;3.83;1.50;;;12.00;99.90;;;;;;5052374;28;20188;-75
2022/12/25 05:58:33;;;;;;;7.63;2.20;;;12.00;99.90;;;;;;5051519;28;20176;-75
2022/12/25 06:00:59;;;;;;;10.05;2.95;;;12.00;99.90;;;;;;5033760;28;20256;-76
2022/12/25 06:03:25;;;;;;;6.78;1.80;;;12.00;99.90;;;;;;5033446;28;20169;-75
2022/12/25 06:05:51;;;;;;;6.13;2.10;;;12.00;99.90;;;;;;5051207;28;20242;-74
2022/12/25 06:08:17;;;;;;;5.40;1.40;;;12.00;99.90;;;;;;5016491;28;20575;-75
2022/12/25 06:10:42;;;;;;;10.57;1.80;;;12.00;99.90;;;;;;5034088;28;20714;-75
2022/12/25 06:13:08;;;;;;;9.70;1.67;;;12.10;99.90;;;;;;5033354;28;20173;-74
2022/12/25 06:15:37;;;;;;;5.63;2.60;;;12.10;99.90;;;;;;5032792;28;20303;-74
2022/12/25 06:18:03;;;;;;;6.85;1.83;;;12.10;99.90;;;;;;5042830;28;20271;-74
2022/12/25 06:20:29;;;;;;;8.60;1.57;;;12.10;99.90;;;;;;5052782;28;20275;-74
2022/12/25 06:22:54;;;;;;;4.63;1.60;;;12.10;99.90;;;;;;5052742;28;20176;-74
2022/12/25 06:25:20;;;;;;;9.63;1.40;;;12.10;99.90;;;;;;5052581;28;20245;-74
2022/12/25 06:27:46;;;;;;;4.03;1.30;;;12.10;99.90;;;;;;5052791;28;20246;-75
2022/12/25 06:30:12;;;;;;;9.70;1.67;;;12.10;99.90;;;;;;5051959;28;20204;-75
2022/12/25 06:32:38;;;;;;;4.82;1.30;;;12.10;99.90;;;;;;5070507;28;20585;-74
2022/12/25 06:35:04;;;;;;;6.10;1.70;;;12.10;99.90;;;;;;5035624;28;20290;-74
2022/12/25 06:37:30;;;;;;;9.23;2.75;;;12.10;99.90;;;;;;5052499;28;20537;-74
2022/12/25 06:39:56;;;;;;;5.53;1.52;;;12.10;99.90;;;;;;5062947;28;20189;-75
2022/12/25 06:42:21;;;;;;;8.03;2.00;;;12.10;99.90;;;;;;5032219;28;20177;-74
2022/12/25 06:44:47;;;;;;;5.80;1.30;;;12.10;99.90;;;;;;5050031;28;20624;-75
2022/12/25 06:47:13;;;;;;;5.73;1.60;;;12.10;99.90;;;;;;5023841;28;20172;-74
2022/12/25 06:49:39;;;;;;;5.00;1.43;;;12.10;99.90;;;;;;5049945;28;20212;-74
2022/12/25 06:52:04;;;;;;;7.53;1.97;;;12.00;99.90;;;;;;5048872;28;20529;-74
2022/12/25 06:54:30;;;;;;;12.60;2.03;;;12.00;99.90;;;;;;5039313;28;20699;-75
2022/12/25 06:56:56;;;;;;;8.83;2.73;;;12.00;99.90;;;;;;5049996;28;20223;-74
2022/12/25 06:59:22;;;;;;;8.70;1.67;;;12.00;99.90;;;;;;5012209;28;20228;-74
2022/12/25 07:01:51;;;;;;;5.95;1.95;;;12.00;99.90;;;;;;4996638;28;20547;-74
2022/12/25 07:04:32;;;;;;;11.52;2.40;;;12.00;99.90;;;;;;5012543;28;20174;-74
2022/12/25 07:06:58;;;;;;;3.30;1.27;;;12.00;99.90;;;;;;4996000;28;20173;-75
2022/12/25 07:09:24;;;;;;;14.23;1.55;;;12.10;99.90;;;;;;4995963;28;20194;-74
2022/12/25 07:11:50;;;;;;;6.93;1.73;;;12.10;99.90;;;;;;5029476;28;20172;-75
2022/12/25 07:14:21;;;;;;;3.23;1.63;;;12.10;99.90;;;;;;5030152;28;20176;-75
2022/12/25 07:16:47;;;;;;;9.27;1.83;;;12.10;99.90;;;;;;5029784;28;20572;-75
2022/12/25 07:19:14;;;;;;;8.07;1.80;;;12.20;99.90;;;;;;5012271;28;20172;-73
2022/12/25 07:21:39;;;;;;;6.65;1.65;;;12.20;99.90;;;;;;4995487;28;20568;-75
2022/12/25 07:24:05;;;;;;;6.63;2.13;;;12.20;99.90;;;;;;5012874;28;20228;-75
2022/12/25 07:26:31;;;;;;;5.00;1.50;;;12.10;99.90;;;;;;5031133;28;20181;-75
2022/12/25 07:28:57;;;;;;;5.30;1.70;;;12.10;99.90;;;;;;5030504;28;20177;-76
2022/12/25 07:31:22;;;;;;;4.30;1.90;;;12.10;99.90;;;;;;5012361;28;20181;-75
2022/12/25 07:33:51;;;;;;;5.97;1.20;;;12.10;99.90;;;;;;5012443;28;20177;-75
2022/12/25 07:36:17;;;;;;;3.90;1.70;;;12.10;99.90;;;;;;5012145;28;20248;-75
2022/12/25 07:38:42;;;;;;;4.10;1.33;;;12.20;99.90;;;;;;5028261;28;20733;-75
2022/12/25 07:41:10;;;;;;;4.90;1.63;;;12.20;99.90;;;;;;5011912;28;20197;-75
2022/12/25 07:43:35;;;;;;;4.90;1.50;;;12.20;99.90;;;;;;5011477;28;20252;-75
2022/12/25 07:46:01;;;;;;;6.27;1.50;;;12.20;99.90;;;;;;5013195;28;20324;-75
2022/12/25 07:48:27;;;;;;;5.20;1.50;;;12.20;99.90;;;;;;5029829;28;20180;-76
2022/12/25 07:50:57;;;;;;;5.38;2.13;;;12.20;99.90;;;;;;5031629;28;20212;-75
2022/12/25 07:53:23;;;;;;;7.57;2.90;;;12.10;99.90;;;;;;5029420;28;20278;-75
2022/12/25 07:56:03;;;;;;;5.03;2.20;;;12.00;99.90;;;;;;5012461;28;20209;-75
2022/12/25 07:58:30;;;;;;;6.22;2.47;;;12.00;99.90;;;;;;5029407;28;20169;-75
2022/12/25 08:01:02;;;;;;;7.88;2.30;;;12.10;99.90;;;;;;5013519;28;20192;-75
2022/12/25 08:03:28;;;;;;;7.57;2.58;;;12.00;99.90;;;;;;5013489;28;20166;-75
2022/12/25 08:05:53;;;;;;;10.33;1.97;;;12.00;99.90;;;;;;5008842;28;20659;-75
2022/12/25 08:08:19;;;;;;;5.60;2.30;;;12.10;99.90;;;;;;4998559;28;20706;-74
2022/12/25 08:10:48;;;;;;;5.27;2.53;;;12.00;99.90;;;;;;5028485;28;20190;-74
2022/12/25 08:13:14;;;;;;;8.15;2.83;;;12.00;99.90;;;;;;5031328;28;20219;-75
2022/12/25 08:15:40;;;;;;;8.87;2.53;;;12.00;99.90;;;;;;5041828;28;20200;-75
2022/12/25 08:18:06;;;;;;;8.50;3.00;;;12.00;99.90;;;;;;5005736;28;20572;-75
2022/12/25 08:20:33;;;;;;;3.60;2.40;;;12.00;99.90;;;;;;5052729;28;20699;-76
2022/12/25 08:22:58;;;;;;;4.93;2.15;;;12.00;99.90;;;;;;5054511;28;20170;-76
2022/12/25 08:25:24;;;;;;;6.93;3.10;;;12.00;99.90;;;;;;5016019;28;20711;-75
2022/12/25 08:27:50;;;;;;;3.17;2.23;;;12.00;99.90;;;;;;5041020;28;20241;-76
2022/12/25 08:30:15;;;;;;;5.70;2.20;;;12.00;99.90;;;;;;5056742;28;20671;-76
2022/12/25 08:32:41;;;;;;;4.50;2.80;;;12.00;99.90;;;;;;5038425;28;20529;-77
2022/12/25 08:35:07;;;;;;;7.30;2.97;;;12.00;99.90;;;;;;5074051;28;20196;-77
2022/12/25 08:37:33;;;;;;;5.80;3.33;;;11.90;99.90;;;;;;5016666;28;20192;-77
2022/12/25 08:39:59;;;;;;;5.80;2.13;;;11.90;99.90;;;;;;5022357;28;20189;-77
2022/12/25 08:42:24;;;;;;;6.87;2.77;;;11.90;99.90;;;;;;5048955;28;20260;-77
2022/12/25 08:44:50;;;;;;;5.43;2.53;;;11.90;99.90;;;;;;5049118;28;20260;-77
2022/12/25 08:47:16;;;;;;;10.27;3.57;;;11.90;99.90;;;;;;5047408;28;20184;-75
2022/12/25 08:49:42;;;;;;;4.43;2.83;;;11.80;99.90;;;;;;5028122;28;20215;-74
2022/12/25 08:52:07;;;;;;;5.23;2.40;;;11.80;99.90;;;;;;5049547;28;20933;-73
2022/12/25 08:54:35;;;;;;;3.60;2.40;;;11.80;99.90;;;;;;5032727;28;20688;-74
2022/12/25 08:57:04;;;;;;;6.57;2.28;;;11.90;99.90;;;;;;5034880;28;20546;-73
2022/12/25 08:59:30;;;;;;;4.78;1.90;;;11.90;99.90;;;;;;5051484;28;20192;-74
2022/12/25 09:01:55;;;;;;;4.17;2.30;;;11.90;99.90;;;;;;5052564;28;20629;-73
2022/12/25 09:04:21;;;;;;;3.10;1.60;;;11.80;99.90;;;;;;5034010;28;20599;-73
2022/12/25 09:06:49;;;;;;;9.10;3.30;;;11.90;99.90;;;;;;5051333;28;20204;-73
2022/12/25 09:09:14;;;;;;;5.25;1.60;;;11.90;99.90;;;;;;5035547;28;20600;-75
2022/12/25 09:11:40;;;;;;;5.30;2.13;;;11.90;99.90;;;;;;5053271;28;20200;-75
2022/12/25 09:14:06;;;;;;;6.70;2.10;;;11.90;99.90;;;;;;5034951;28;20185;-75
2022/12/25 09:16:31;;;;;;;6.20;2.40;;;11.90;99.90;;;;;;5001170;28;20201;-75
2022/12/25 09:18:58;;;;;;;3.70;1.80;;;11.90;99.90;;;;;;5031162;28;20200;-76
2022/12/25 09:21:23;;;;;;;5.72;2.22;;;11.90;99.90;;;;;;5012674;28;20216;-76
2022/12/25 09:23:49;;;;;;;4.40;2.10;;;11.90;99.90;;;;;;5032228;28;20696;-75
2022/12/25 09:26:17;;;;;;;9.70;2.40;;;11.90;99.90;;;;;;5012888;28;20238;-76
2022/12/25 09:28:43;;;;;;;5.97;2.40;;;11.90;99.90;;;;;;5030738;28;20679;-75
2022/12/25 09:31:09;;;;;;;4.97;1.58;;;11.90;99.90;;;;;;5012558;28;20193;-75
2022/12/25 09:33:34;;;;;;;5.93;2.10;;;11.90;99.90;;;;;;5013607;28;20169;-74
2022/12/25 09:36:04;;;;;;;4.60;2.43;;;11.90;99.90;;;;;;5013637;28;20720;-74
2022/12/25 09:38:30;;;;;;;4.53;2.60;;;11.80;99.90;;;;;;5031479;28;20166;-75
2022/12/25 09:41:41;;;;;;;2.65;1.50;;;11.70;99.90;;;;;;5013592;28;20201;-75
2022/12/25 09:44:16;;;;;;;3.92;2.10;;;11.60;99.90;;;;;;4997849;28;20181;-75
2022/12/25 09:46:57;;;;;;;3.47;1.80;;;11.60;99.90;;;;;;5013668;28;20177;-74
2022/12/25 09:49:40;;;;;;;3.78;2.20;;;11.60;99.90;;;;;;5013428;28;20201;-75
2022/12/25 09:52:38;;;;;;;4.35;2.50;;;11.50;99.90;;;;;;4997106;28;20251;-74
2022/12/25 09:55:19;;;;;;;3.55;1.90;;;11.50;99.90;;;;;;5032990;28;20228;-75
2022/12/25 09:57:49;;;;;;;4.15;2.40;;;11.50;99.90;;;;;;5013507;28;20197;-74
2022/12/25 10:00:18;;;;;;;7.88;3.50;;;11.50;99.90;;;;;;5031559;28;20631;-75
2022/12/25 10:03:11;;;;;;;4.43;2.45;;;11.40;99.90;;;;;;5031005;28;20161;-75
2022/12/25 10:05:37;;;;;;;5.90;3.38;;;11.40;99.90;;;;;;5013701;28;20694;-75
2022/12/25 10:08:23;;;;;;;8.40;2.27;;;11.30;99.90;;;;;;5030750;28;20178;-76
2022/12/25 10:11:07;;;;;;;3.78;2.13;;;11.30;99.90;;;;;;5013250;28;20201;-75
2022/12/25 10:13:43;;;;;;;6.43;2.80;;;11.30;99.90;;;;;;5013543;28;20176;-75
2022/12/25 10:16:30;;;;;;;8.93;4.72;;;11.30;99.90;;;;;;4997121;28;20200;-75
2022/12/25 10:19:03;;;;;;;7.32;4.22;;;11.30;99.90;;;;;;4996987;28;20260;-75
2022/12/25 10:21:30;;;;;;;13.75;5.53;;;11.30;99.90;;;;;;5031254;28;20180;-75
2022/12/25 10:24:17;;;;;;;8.63;3.90;;;11.30;99.90;;;;;;5032671;28;20672;-74
2022/12/25 10:26:44;;;;;;;7.05;3.60;;;11.30;99.90;;;;;;5031177;28;20222;-74
2022/12/25 10:29:12;;;;;;;6.72;2.97;;;11.30;99.90;;;;;;5012578;28;20639;-74
2022/12/25 10:31:38;;;;;;;6.45;3.08;;;11.30;99.90;;;;;;5034957;28;20170;-75
2022/12/25 10:34:05;;;;;;;10.52;2.95;;;11.30;99.90;;;;;;5030738;28;20197;-74
2022/12/25 10:36:32;;;;;;;6.78;2.80;;;11.40;99.90;;;;;;5030216;28;20201;-74
2022/12/25 10:38:58;;;;;;;6.93;3.50;;;11.40;99.90;;;;;;4995601;28;20170;-74
2022/12/25 10:41:44;;;;;;;7.40;3.57;;;11.40;99.90;;;;;;5012399;28;20178;-74
2022/12/25 10:44:23;;;;;;;4.90;2.22;;;11.40;99.90;;;;;;5030219;28;20252;-74
2022/12/25 10:46:55;;;;;;;3.70;2.05;;;11.50;99.90;;;;;;5030299;28;20177;-74
2022/12/25 10:49:23;;;;;;;3.67;2.35;;;11.60;99.90;;;;;;5011688;28;20244;-74
2022/12/25 10:51:49;;;;;;;5.43;2.75;;;11.50;99.90;;;;;;5012183;28;20184;-74
2022/12/25 10:54:28;;;;;;;7.97;2.67;;;11.60;99.90;;;;;;5030343;28;20169;-73
2022/12/25 10:56:58;;;;;;;12.15;3.42;;;11.60;99.90;;;;;;5030271;28;20297;-75
2022/12/25 10:59:32;;;;;;;6.22;3.55;;;11.60;99.90;;;;;;5011996;28;20182;-74
2022/12/25 11:02:13;;;;;;;5.15;3.42;;;11.50;99.90;;;;;;5034221;23;20718;-80
2022/12/25 11:04:39;;;;;;;14.45;8.18;;;11.50;99.90;;;;;;5043442;28;20238;-80
2022/12/25 11:07:14;;;;;;;7.33;4.87;;;11.50;99.90;;;;;;5057168;28;20173;-80
2022/12/25 11:09:52;;;;;;;7.30;4.68;;;11.50;99.90;;;;;;5048319;28;20173;-81
2022/12/25 11:12:20;;;;;;;5.25;3.55;;;11.50;99.90;;;;;;5047517;28;20184;-81
2022/12/25 11:14:57;;;;;;;6.80;3.63;;;11.50;99.90;;;;;;5056073;28;20640;-81
2022/12/25 11:17:24;;;;;;;4.45;3.10;;;11.60;99.90;;;;;;5052296;28;20183;-80
2022/12/25 11:19:59;;;;;;;6.78;3.00;;;11.60;99.90;;;;;;5051022;28;20172;-79
2022/12/25 11:22:27;;;;;;;3.33;2.05;;;11.60;99.90;;;;;;5034464;28;20206;-79
2022/12/25 11:24:53;;;;;;;5.18;2.55;;;11.60;99.90;;;;;;5069468;28;20195;-79
2022/12/25 11:27:26;;;;;;;5.78;2.60;;;11.70;99.90;;;;;;5051415;28;20678;-79
2022/12/25 11:29:58;;;;;;;7.45;3.45;;;11.70;99.90;;;;;;5051373;28;20184;-80
2022/12/25 11:32:29;;;;;;;4.80;3.33;;;11.70;99.90;;;;;;5034359;28;20876;-79
2022/12/25 11:34:56;;;;;;;5.47;3.30;;;11.70;99.90;;;;;;5073365;28;20581;-78
2022/12/25 11:37:33;;;;;;;4.68;3.50;;;11.60;99.90;;;;;;5051510;28;20251;-78
2022/12/25 11:40:00;;;;;;;8.90;2.83;;;11.60;99.90;;;;;;5034369;28;20172;-79
2022/12/25 11:42:39;;;;;;;6.72;3.10;;;11.60;99.90;;;;;;5050768;28;20187;-79
2022/12/25 11:45:42;;;;;;;4.32;2.25;;;11.70;99.90;;;;;;5051416;28;20259;-79
2022/12/25 11:48:14;;;;;;;5.72;2.25;;;11.70;99.90;;;;;;5050988;28;20221;-78
2022/12/25 11:50:55;;;;;;;4.40;2.70;;;11.80;99.90;;;;;;5034634;28;20176;-79
2022/12/25 11:53:33;;;;;;;5.45;3.05;;;11.80;99.90;;;;;;5068734;28;20184;-79
2022/12/25 11:56:25;;;;;;;3.65;2.53;;;11.80;99.90;;;;;;5035123;28;20204;-78
2022/12/25 11:58:59;;;;;;;9.23;4.18;;;11.80;99.90;;;;;;5068585;28;20680;-79
2022/12/25 12:01:30;;;;;;;4.30;2.85;;;11.80;99.90;;;;;;5068826;28;20878;-78
2022/12/25 12:03:59;;;;;;;2.75;2.25;;;11.80;99.90;;;;;;5068984;28;20851;-78
2022/12/25 12:06:30;;;;;;;6.15;2.80;;;11.90;99.90;;;;;;5069337;28;20205;-78
2022/12/25 12:09:22;;;;;;;5.70;3.22;;;11.90;99.90;;;;;;5033772;28;20176;-78
2022/12/25 12:12:13;;;;;;;6.70;3.47;;;12.00;99.90;;;;;;5023977;28;20240;-78
2022/12/25 12:15:06;;;;;;;6.70;4.10;;;11.90;99.90;;;;;;5051413;28;20180;-78
2022/12/25 12:17:32;;;;;;;5.72;3.60;;;11.90;99.90;;;;;;5051040;28;20660;-78
2022/12/25 12:19:57;;;;;;;5.70;3.53;;;12.00;99.90;;;;;;5050281;28;20171;-78
2022/12/25 12:22:27;;;;;;;7.33;2.80;;;12.00;99.90;;;;;;5050578;28;21255;-78
2022/12/25 12:24:58;;;;;;;5.43;3.58;;;12.10;99.90;;;;;;5034333;28;20183;-78
2022/12/25 12:27:37;;;;;;;5.65;3.80;;;12.10;99.90;;;;;;5051221;28;20179;-79
2022/12/25 12:30:05;;;;;;;6.32;3.38;;;12.10;99.90;;;;;;5072166;28;20163;-78
2022/12/25 12:32:41;;;;;;;4.93;3.63;;;12.20;99.90;;;;;;5037779;28;20193;-78
2022/12/25 12:35:21;;;;;;;6.50;4.45;;;12.10;99.90;;;;;;5055698;28;20261;-79
2022/12/25 12:37:54;;;;;;;5.50;3.60;;;12.10;99.90;;;;;;5072650;28;20575;-78
2022/12/25 12:40:26;;;;;;;6.75;3.25;;;12.20;99.90;;;;;;5072771;28;20157;-78
2022/12/25 12:42:51;;;;;;;9.53;3.67;;;12.30;99.90;;;;;;5054222;28;20250;-78
2022/12/25 12:45:22;;;;;;;5.03;3.70;;;12.30;99.90;;;;;;5038357;28;20578;-78
2022/12/25 12:47:52;;;;;;;7.22;3.53;;;12.30;99.90;;;;;;5072479;28;20234;-78
2022/12/25 12:50:31;;;;;;;4.73;2.80;;;12.40;99.90;;;;;;5059018;28;20180;-78
2022/12/25 12:52:58;;;;;;;5.73;3.33;;;12.40;99.90;;;;;;5054088;28;20701;-78
2022/12/25 12:55:33;;;;;;;3.10;2.33;;;12.40;99.90;;;;;;5054304;28;20634;-78
2022/12/25 12:58:00;;;;;;;4.50;3.43;;;12.50;99.90;;;;;;5020753;28;20569;-78
2022/12/25 13:00:47;;;;;;;5.50;3.30;;;12.50;99.90;;;;;;5072180;28;20701;-78
2022/12/25 13:03:25;;;;;;;9.63;4.32;;;12.50;99.90;;;;;;5053459;28;20648;-78
2022/12/25 13:05:59;;;;;;;6.63;3.53;;;12.60;99.90;;;;;;5054224;28;20206;-78
2022/12/25 13:08:30;;;;;;;3.93;3.40;;;12.60;99.90;;;;;;5053461;28;20574;-78
2022/12/25 13:11:17;;;;;;;6.03;4.45;;;12.60;99.90;;;;;;5054069;28;21109;-78
2022/12/25 13:13:44;;;;;;;7.73;3.73;;;12.70;99.90;;;;;;5071867;28;20164;-78
2022/12/25 13:16:35;;;;;;;6.70;4.80;;;12.70;99.90;;;;;;5071919;28;20618;-78
2022/12/25 13:19:07;;;;;;;6.60;5.60;;;12.70;99.90;;;;;;5053324;28;20678;-79
2022/12/25 13:21:33;;;;;;;7.63;4.00;;;12.70;99.90;;;;;;5053639;28;20610;-79
2022/12/25 13:24:07;;;;;;;5.30;3.67;;;12.80;99.90;;;;;;5054141;28;20255;-79
2022/12/25 13:26:34;;;;;;;5.57;4.40;;;12.80;99.90;;;;;;5057316;28;20578;-79
2022/12/25 13:29:00;;;;;;;13.27;5.73;;;12.80;99.90;;;;;;5054361;28;20630;-79
2022/12/25 13:31:28;;;;;;;8.03;6.90;;;12.80;99.90;;;;;;5036595;28;20673;-79
2022/12/25 13:34:03;;;;;;;6.60;5.47;;;12.80;99.90;;;;;;5074114;28;20574;-79
2022/12/25 13:36:36;;;;;;;10.77;5.80;;;12.80;99.90;;;;;;5053650;28;20634;-79
2022/12/25 13:39:05;;;;;;;7.90;6.30;;;12.90;99.90;;;;;;5052909;28;20589;-79
2022/12/25 13:42:09;;;;;;;7.43;6.33;;;12.90;99.90;;;;;;5052457;28;20681;-79
2022/12/25 13:44:38;;;;;;;7.50;5.43;;;12.90;99.90;;;;;;5038112;28;20586;-80
2022/12/25 13:47:37;;;;;;;7.18;4.25;;;13.00;99.90;;;;;;5071312;28;20598;-79
2022/12/25 13:50:32;;;;;;;6.97;3.80;;;13.10;99.90;;;;;;5054289;28;20259;-79
2022/12/25 13:53:19;;;;;;;4.33;2.90;;;13.10;99.90;;;;;;5070916;28;20578;-79
2022/12/25 13:55:53;;;;;;;4.80;3.53;;;13.10;99.90;;;;;;5052692;28;20630;-79
2022/12/25 13:58:28;;;;;;;5.23;3.63;;;13.10;99.90;;;;;;5070793;28;20569;-79
2022/12/25 14:00:58;;;;;;;6.40;4.70;;;13.10;99.90;;;;;;5053418;28;20586;-78
2022/12/25 14:03:42;;;;;;;5.20;3.80;;;13.20;99.90;;;;;;5072066;28;20628;-80
2022/12/25 14:06:20;;;;;;;5.57;3.70;;;13.10;99.90;;;;;;5039667;28;20578;-80
2022/12/25 14:08:47;;;;;;;4.30;3.27;;;13.20;99.90;;;;;;5036374;28;20998;-80
2022/12/25 14:15:02;;;;;;;4.57;4.17;;;13.30;99.90;;;;;;5029037;28;20736;-80
2022/12/25 14:17:28;;;;;;;4.13;3.70;;;13.30;99.90;;;;;;5070748;28;20972;-80
2022/12/25 14:19:56;;;;;;;3.87;3.00;;;13.40;99.90;;;;;;5052989;28;20578;-80
2022/12/25 14:22:23;;;;;;;5.57;4.10;;;13.40;99.90;;;;;;5051811;28;20822;-80
2022/12/25 14:24:49;;;;;;;5.87;3.53;;;13.40;99.90;;;;;;5070850;28;20606;-80
2022/12/25 14:27:24;;;;;;;5.07;3.90;;;13.50;99.90;;;;;;5052371;28;20574;-80
2022/12/25 14:29:52;;;;;;;5.03;3.50;;;13.50;99.90;;;;;;5070804;28;20621;-80
2022/12/25 14:32:21;;;;;;;3.23;2.90;;;13.50;99.90;;;;;;5069840;28;20703;-80
2022/12/25 14:34:51;;;;;;;7.23;4.50;;;13.50;99.90;;;;;;5052941;28;21526;-80
2022/12/25 14:37:23;;;;;;;5.23;3.90;;;13.50;99.90;;;;;;5052663;28;20591;-80
2022/12/25 14:40:00;;;;;;;5.20;3.37;;;13.50;99.90;;;;;;5036381;28;20603;-80
2022/12/25 14:42:33;;;;;;;3.80;3.43;;;13.60;99.90;;;;;;5075086;28;20614;-80
2022/12/25 14:45:23;;;;;;;6.00;5.40;;;13.60;99.90;;;;;;5052452;28;20578;-80
2022/12/25 14:47:55;;;;;;;6.30;3.80;;;13.60;99.90;;;;;;5036050;28;20595;-80
2022/12/25 14:50:34;;;;;;;11.77;4.87;;;13.70;99.90;;;;;;5070734;28;20640;-80
2022/12/25 14:52:59;;;;;;;3.47;2.87;;;13.70;99.90;;;;;;5051833;28;20699;-79
2022/12/25 14:55:28;;;;;;;4.00;3.40;;;13.80;99.90;;;;;;5052509;28;21209;-80